sensor_id;sensor_type;location;lat;lon;timestamp;P1;durP1;ratioP1;P2;durP2;ratioP2
2542;SDS011;1116;51.502;7.414;2023-03-03T00:00:03;50.40;;;26.85;;
2542;SDS011;1116;51.502;7.414;2023-03-03T00:02:38;50.42;;;26.52;;
2542;SDS011;1116;51.502;7.414;2023-03-03T00:05:09;51.10;;;26.50;;
2542;SDS011;1116;51.502;7.414;2023-03-03T00:07:47;44.75;;;25.83;;
2542;SDS011;1116;51.502;7.414;2023-03-03T00:10:18;51.50;;;26.05;;
2542;SDS011;1116;51.502;7.414;2023-03-03T00:12:49;48.83;;;26.30;;
2542;SDS011;1116;51.502;7.414;2023-03-03T00:15:21;46.40;;;24.30;;
2542;SDS011;1116;51.502;7.414;2023-03-03T00:17:55;50.58;;;25.98;;
2542;SDS011;1116;51.502;7.414;2023-03-03T00:20:29;42.92;;;23.95;;
2542;SDS011;1116;51.502;7.414;2023-03-03T00:23:08;50.17;;;27.10;;
2542;SDS011;1116;51.502;7.414;2023-03-03T00:25:48;44.05;;;24.38;;
2542;SDS011;1116;51.502;7.414;2023-03-03T00:28:25;47.30;;;26.15;;
2542;SDS011;1116;51.502;7.414;2023-03-03T00:31:00;49.65;;;26.80;;
2542;SDS011;1116;51.502;7.414;2023-03-03T00:33:44;41.72;;;23.05;;
2542;SDS011;1116;51.502;7.414;2023-03-03T00:36:28;42.72;;;25.00;;
2542;SDS011;1116;51.502;7.414;2023-03-03T00:39:16;44.70;;;23.83;;
2542;SDS011;1116;51.502;7.414;2023-03-03T00:41:52;47.95;;;25.65;;
2542;SDS011;1116;51.502;7.414;2023-03-03T00:47:28;54.25;;;26.20;;
2542;SDS011;1116;51.502;7.414;2023-03-03T00:53:04;48.42;;;25.05;;
2542;SDS011;1116;51.502;7.414;2023-03-03T00:55:36;46.95;;;25.30;;
2542;SDS011;1116;51.502;7.414;2023-03-03T00:58:08;45.65;;;25.85;;
2542;SDS011;1116;51.502;7.414;2023-03-03T01:00:39;47.25;;;26.15;;
2542;SDS011;1116;51.502;7.414;2023-03-03T01:03:12;50.15;;;27.27;;
2542;SDS011;1116;51.502;7.414;2023-03-03T01:05:44;44.78;;;24.38;;
2542;SDS011;1116;51.502;7.414;2023-03-03T01:08:21;48.90;;;26.08;;
2542;SDS011;1116;51.502;7.414;2023-03-03T01:10:53;50.20;;;26.33;;
2542;SDS011;1116;51.502;7.414;2023-03-03T01:13:26;42.70;;;24.88;;
2542;SDS011;1116;51.502;7.414;2023-03-03T01:15:59;45.03;;;25.27;;
2542;SDS011;1116;51.502;7.414;2023-03-03T01:18:30;47.90;;;25.05;;
2542;SDS011;1116;51.502;7.414;2023-03-03T01:21:01;45.22;;;24.60;;
2542;SDS011;1116;51.502;7.414;2023-03-03T01:23:35;51.05;;;24.80;;
2542;SDS011;1116;51.502;7.414;2023-03-03T01:26:06;47.73;;;25.60;;
2542;SDS011;1116;51.502;7.414;2023-03-03T01:28:37;47.88;;;25.58;;
2542;SDS011;1116;51.502;7.414;2023-03-03T01:31:08;50.50;;;24.85;;
2542;SDS011;1116;51.502;7.414;2023-03-03T01:33:39;47.60;;;24.63;;
2542;SDS011;1116;51.502;7.414;2023-03-03T01:36:10;44.35;;;24.02;;
2542;SDS011;1116;51.502;7.414;2023-03-03T01:38:43;49.10;;;25.90;;
2542;SDS011;1116;51.502;7.414;2023-03-03T01:41:14;48.90;;;24.98;;
2542;SDS011;1116;51.502;7.414;2023-03-03T01:43:46;46.17;;;25.27;;
2542;SDS011;1116;51.502;7.414;2023-03-03T01:46:28;45.95;;;24.27;;
2542;SDS011;1116;51.502;7.414;2023-03-03T01:49:11;46.10;;;25.73;;
2542;SDS011;1116;51.502;7.414;2023-03-03T01:51:46;47.65;;;27.27;;
2542;SDS011;1116;51.502;7.414;2023-03-03T01:54:23;52.88;;;25.80;;
2542;SDS011;1116;51.502;7.414;2023-03-03T01:56:59;53.33;;;26.42;;
2542;SDS011;1116;51.502;7.414;2023-03-03T01:59:34;49.53;;;26.52;;
2542;SDS011;1116;51.502;7.414;2023-03-03T02:02:09;42.80;;;24.20;;
2542;SDS011;1116;51.502;7.414;2023-03-03T02:04:41;43.70;;;23.13;;
2542;SDS011;1116;51.502;7.414;2023-03-03T02:07:11;46.33;;;25.30;;
2542;SDS011;1116;51.502;7.414;2023-03-03T02:09:50;40.78;;;22.08;;
2542;SDS011;1116;51.502;7.414;2023-03-03T02:12:27;40.80;;;21.95;;
2542;SDS011;1116;51.502;7.414;2023-03-03T02:15:07;42.03;;;22.25;;
2542;SDS011;1116;51.502;7.414;2023-03-03T02:17:45;38.00;;;21.38;;
2542;SDS011;1116;51.502;7.414;2023-03-03T02:20:20;40.13;;;23.45;;
2542;SDS011;1116;51.502;7.414;2023-03-03T02:23:02;42.97;;;24.10;;
2542;SDS011;1116;51.502;7.414;2023-03-03T02:25:47;43.97;;;23.95;;
2542;SDS011;1116;51.502;7.414;2023-03-03T02:28:29;52.35;;;25.92;;
2542;SDS011;1116;51.502;7.414;2023-03-03T02:31:02;50.90;;;25.63;;
2542;SDS011;1116;51.502;7.414;2023-03-03T02:33:37;50.38;;;26.35;;
2542;SDS011;1116;51.502;7.414;2023-03-03T02:36:10;47.08;;;24.45;;
2542;SDS011;1116;51.502;7.414;2023-03-03T02:38:43;51.55;;;25.80;;
2542;SDS011;1116;51.502;7.414;2023-03-03T02:41:20;49.33;;;25.95;;
2542;SDS011;1116;51.502;7.414;2023-03-03T02:44:01;50.15;;;26.00;;
2542;SDS011;1116;51.502;7.414;2023-03-03T02:46:34;48.28;;;24.30;;
2542;SDS011;1116;51.502;7.414;2023-03-03T02:49:06;46.05;;;23.23;;
2542;SDS011;1116;51.502;7.414;2023-03-03T02:51:51;45.53;;;25.35;;
2542;SDS011;1116;51.502;7.414;2023-03-03T02:54:23;49.00;;;24.58;;
2542;SDS011;1116;51.502;7.414;2023-03-03T02:56:56;49.80;;;24.65;;
2542;SDS011;1116;51.502;7.414;2023-03-03T02:59:32;49.08;;;25.80;;
2542;SDS011;1116;51.502;7.414;2023-03-03T03:02:03;52.75;;;26.05;;
2542;SDS011;1116;51.502;7.414;2023-03-03T03:04:35;45.58;;;23.98;;
2542;SDS011;1116;51.502;7.414;2023-03-03T03:07:05;53.47;;;27.70;;
2542;SDS011;1116;51.502;7.414;2023-03-03T03:09:38;52.05;;;26.50;;
2542;SDS011;1116;51.502;7.414;2023-03-03T03:12:08;61.85;;;28.42;;
2542;SDS011;1116;51.502;7.414;2023-03-03T03:14:42;61.80;;;28.63;;
2542;SDS011;1116;51.502;7.414;2023-03-03T03:17:13;66.80;;;31.90;;
2542;SDS011;1116;51.502;7.414;2023-03-03T03:19:44;65.95;;;29.55;;
2542;SDS011;1116;51.502;7.414;2023-03-03T03:22:14;63.22;;;29.00;;
2542;SDS011;1116;51.502;7.414;2023-03-03T03:24:45;60.17;;;29.35;;
2542;SDS011;1116;51.502;7.414;2023-03-03T03:27:16;64.18;;;31.65;;
2542;SDS011;1116;51.502;7.414;2023-03-03T03:29:52;75.78;;;33.60;;
2542;SDS011;1116;51.502;7.414;2023-03-03T03:32:23;74.22;;;34.03;;
2542;SDS011;1116;51.502;7.414;2023-03-03T03:34:54;81.32;;;35.97;;
2542;SDS011;1116;51.502;7.414;2023-03-03T03:37:25;78.82;;;34.50;;
2542;SDS011;1116;51.502;7.414;2023-03-03T03:39:56;77.47;;;36.05;;
2542;SDS011;1116;51.502;7.414;2023-03-03T03:42:27;83.35;;;35.97;;
2542;SDS011;1116;51.502;7.414;2023-03-03T03:45:00;77.05;;;34.28;;
2542;SDS011;1116;51.502;7.414;2023-03-03T03:47:31;70.47;;;32.65;;
2542;SDS011;1116;51.502;7.414;2023-03-03T03:50:02;72.07;;;32.83;;
2542;SDS011;1116;51.502;7.414;2023-03-03T03:52:33;66.20;;;31.10;;
2542;SDS011;1116;51.502;7.414;2023-03-03T03:55:05;66.15;;;30.70;;
2542;SDS011;1116;51.502;7.414;2023-03-03T03:57:36;57.33;;;28.08;;
2542;SDS011;1116;51.502;7.414;2023-03-03T04:00:10;59.08;;;26.85;;
2542;SDS011;1116;51.502;7.414;2023-03-03T04:02:42;49.80;;;24.50;;
2542;SDS011;1116;51.502;7.414;2023-03-03T04:05:13;58.30;;;27.40;;
2542;SDS011;1116;51.502;7.414;2023-03-03T04:07:43;71.53;;;33.17;;
2542;SDS011;1116;51.502;7.414;2023-03-03T04:10:15;77.18;;;34.63;;
2542;SDS011;1116;51.502;7.414;2023-03-03T04:12:45;68.15;;;33.22;;
2542;SDS011;1116;51.502;7.414;2023-03-03T04:15:19;71.82;;;32.42;;
2542;SDS011;1116;51.502;7.414;2023-03-03T04:17:50;74.18;;;32.53;;
2542;SDS011;1116;51.502;7.414;2023-03-03T04:20:21;88.45;;;38.67;;
2542;SDS011;1116;51.502;7.414;2023-03-03T04:22:52;79.40;;;36.42;;
2542;SDS011;1116;51.502;7.414;2023-03-03T04:25:23;85.70;;;37.53;;
2542;SDS011;1116;51.502;7.414;2023-03-03T04:27:54;86.32;;;35.72;;
2542;SDS011;1116;51.502;7.414;2023-03-03T04:30:27;78.35;;;34.83;;
2542;SDS011;1116;51.502;7.414;2023-03-03T04:32:58;76.35;;;35.10;;
2542;SDS011;1116;51.502;7.414;2023-03-03T04:35:29;86.68;;;34.97;;
2542;SDS011;1116;51.502;7.414;2023-03-03T04:38:00;75.40;;;33.30;;
2542;SDS011;1116;51.502;7.414;2023-03-03T04:40:32;71.82;;;30.65;;
2542;SDS011;1116;51.502;7.414;2023-03-03T04:43:02;75.85;;;32.40;;
2542;SDS011;1116;51.502;7.414;2023-03-03T04:45:36;66.20;;;28.60;;
2542;SDS011;1116;51.502;7.414;2023-03-03T04:48:07;60.08;;;27.58;;
2542;SDS011;1116;51.502;7.414;2023-03-03T04:50:38;54.65;;;26.48;;
2542;SDS011;1116;51.502;7.414;2023-03-03T04:53:09;57.22;;;24.85;;
2542;SDS011;1116;51.502;7.414;2023-03-03T04:55:39;51.92;;;24.80;;
2542;SDS011;1116;51.502;7.414;2023-03-03T04:58:10;48.15;;;23.30;;
2542;SDS011;1116;51.502;7.414;2023-03-03T05:00:44;48.00;;;22.52;;
2542;SDS011;1116;51.502;7.414;2023-03-03T05:03:15;53.67;;;23.55;;
2542;SDS011;1116;51.502;7.414;2023-03-03T05:05:46;50.38;;;22.90;;
2542;SDS011;1116;51.502;7.414;2023-03-03T05:08:17;50.28;;;22.75;;
2542;SDS011;1116;51.502;7.414;2023-03-03T05:10:50;53.80;;;24.60;;
2542;SDS011;1116;51.502;7.414;2023-03-03T05:13:21;51.40;;;24.48;;
2542;SDS011;1116;51.502;7.414;2023-03-03T05:15:55;42.30;;;21.70;;
2542;SDS011;1116;51.502;7.414;2023-03-03T05:18:26;46.92;;;22.55;;
2542;SDS011;1116;51.502;7.414;2023-03-03T05:20:57;49.83;;;21.95;;
2542;SDS011;1116;51.502;7.414;2023-03-03T05:23:28;47.08;;;21.95;;
2542;SDS011;1116;51.502;7.414;2023-03-03T05:25:59;46.22;;;21.75;;
2542;SDS011;1116;51.502;7.414;2023-03-03T05:28:30;47.50;;;22.20;;
2542;SDS011;1116;51.502;7.414;2023-03-03T05:31:04;46.38;;;21.70;;
2542;SDS011;1116;51.502;7.414;2023-03-03T05:33:35;43.42;;;21.13;;
2542;SDS011;1116;51.502;7.414;2023-03-03T05:36:06;44.38;;;20.67;;
2542;SDS011;1116;51.502;7.414;2023-03-03T05:38:37;47.70;;;22.60;;
2542;SDS011;1116;51.502;7.414;2023-03-03T05:41:08;44.08;;;22.25;;
2542;SDS011;1116;51.502;7.414;2023-03-03T05:43:39;42.45;;;20.95;;
2542;SDS011;1116;51.502;7.414;2023-03-03T05:46:13;36.05;;;19.25;;
2542;SDS011;1116;51.502;7.414;2023-03-03T05:48:47;46.20;;;20.55;;
2542;SDS011;1116;51.502;7.414;2023-03-03T05:51:35;46.25;;;20.17;;
2542;SDS011;1116;51.502;7.414;2023-03-03T05:54:06;44.92;;;20.55;;
2542;SDS011;1116;51.502;7.414;2023-03-03T05:56:37;39.92;;;21.52;;
2542;SDS011;1116;51.502;7.414;2023-03-03T05:59:08;40.85;;;20.90;;
2542;SDS011;1116;51.502;7.414;2023-03-03T06:01:42;41.83;;;22.17;;
2542;SDS011;1116;51.502;7.414;2023-03-03T06:04:13;42.95;;;20.15;;
2542;SDS011;1116;51.502;7.414;2023-03-03T06:06:43;40.13;;;19.58;;
2542;SDS011;1116;51.502;7.414;2023-03-03T06:09:14;43.70;;;21.77;;
2542;SDS011;1116;51.502;7.414;2023-03-03T06:11:45;45.83;;;22.35;;
2542;SDS011;1116;51.502;7.414;2023-03-03T06:14:19;43.35;;;20.08;;
2542;SDS011;1116;51.502;7.414;2023-03-03T06:16:55;39.72;;;20.98;;
2542;SDS011;1116;51.502;7.414;2023-03-03T06:19:26;46.20;;;21.85;;
2542;SDS011;1116;51.502;7.414;2023-03-03T06:21:57;43.85;;;20.98;;
2542;SDS011;1116;51.502;7.414;2023-03-03T06:24:28;42.25;;;20.70;;
2542;SDS011;1116;51.502;7.414;2023-03-03T06:26:59;43.03;;;20.95;;
2542;SDS011;1116;51.502;7.414;2023-03-03T06:29:30;42.80;;;21.17;;
2542;SDS011;1116;51.502;7.414;2023-03-03T06:32:04;39.17;;;19.80;;
2542;SDS011;1116;51.502;7.414;2023-03-03T06:34:35;41.63;;;20.92;;
2542;SDS011;1116;51.502;7.414;2023-03-03T06:37:06;39.60;;;20.05;;
2542;SDS011;1116;51.502;7.414;2023-03-03T06:39:37;40.25;;;20.10;;
2542;SDS011;1116;51.502;7.414;2023-03-03T06:42:08;30.80;;;17.80;;
2542;SDS011;1116;51.502;7.414;2023-03-03T06:44:39;42.45;;;20.42;;
2542;SDS011;1116;51.502;7.414;2023-03-03T06:47:12;38.67;;;19.88;;
2542;SDS011;1116;51.502;7.414;2023-03-03T06:49:43;35.97;;;18.08;;
2542;SDS011;1116;51.502;7.414;2023-03-03T06:52:18;32.25;;;17.75;;
2542;SDS011;1116;51.502;7.414;2023-03-03T06:54:52;30.48;;;16.63;;
2542;SDS011;1116;51.502;7.414;2023-03-03T06:57:25;31.17;;;16.58;;
2542;SDS011;1116;51.502;7.414;2023-03-03T06:59:58;32.50;;;17.70;;
2542;SDS011;1116;51.502;7.414;2023-03-03T07:02:43;32.10;;;16.48;;
2542;SDS011;1116;51.502;7.414;2023-03-03T07:05:14;32.58;;;18.33;;
2542;SDS011;1116;51.502;7.414;2023-03-03T07:07:47;33.60;;;18.27;;
2542;SDS011;1116;51.502;7.414;2023-03-03T07:10:22;33.45;;;17.48;;
2542;SDS011;1116;51.502;7.414;2023-03-03T07:12:55;30.77;;;17.27;;
2542;SDS011;1116;51.502;7.414;2023-03-03T07:15:38;34.83;;;18.02;;
2542;SDS011;1116;51.502;7.414;2023-03-03T07:18:22;31.48;;;17.85;;
2542;SDS011;1116;51.502;7.414;2023-03-03T07:21:04;38.53;;;18.33;;
2542;SDS011;1116;51.502;7.414;2023-03-03T07:23:44;32.20;;;17.38;;
2542;SDS011;1116;51.502;7.414;2023-03-03T07:26:17;38.70;;;18.60;;
2542;SDS011;1116;51.502;7.414;2023-03-03T07:28:52;31.92;;;18.40;;
2542;SDS011;1116;51.502;7.414;2023-03-03T07:31:25;32.97;;;18.38;;
2542;SDS011;1116;51.502;7.414;2023-03-03T07:34:04;37.38;;;19.35;;
2542;SDS011;1116;51.502;7.414;2023-03-03T07:36:46;39.40;;;19.35;;
2542;SDS011;1116;51.502;7.414;2023-03-03T07:39:27;39.60;;;20.50;;
2542;SDS011;1116;51.502;7.414;2023-03-03T07:42:18;43.17;;;21.20;;
2542;SDS011;1116;51.502;7.414;2023-03-03T07:44:54;42.58;;;21.17;;
2542;SDS011;1116;51.502;7.414;2023-03-03T07:47:27;40.92;;;21.20;;
2542;SDS011;1116;51.502;7.414;2023-03-03T07:50:06;40.83;;;21.33;;
2542;SDS011;1116;51.502;7.414;2023-03-03T07:52:49;59.00;;;26.90;;
2542;SDS011;1116;51.502;7.414;2023-03-03T07:55:29;59.00;;;27.88;;
2542;SDS011;1116;51.502;7.414;2023-03-03T07:58:14;62.95;;;29.63;;
2542;SDS011;1116;51.502;7.414;2023-03-03T08:03:57;85.65;;;34.97;;
2542;SDS011;1116;51.502;7.414;2023-03-03T08:06:38;77.95;;;35.38;;
2542;SDS011;1116;51.502;7.414;2023-03-03T08:15:19;56.22;;;26.15;;
2542;SDS011;1116;51.502;7.414;2023-03-03T08:17:52;61.58;;;27.20;;
2542;SDS011;1116;51.502;7.414;2023-03-03T08:20:38;56.00;;;26.83;;
2542;SDS011;1116;51.502;7.414;2023-03-03T08:23:18;62.42;;;27.13;;
2542;SDS011;1116;51.502;7.414;2023-03-03T08:25:50;63.58;;;28.20;;
2542;SDS011;1116;51.502;7.414;2023-03-03T08:28:22;69.45;;;28.13;;
2542;SDS011;1116;51.502;7.414;2023-03-03T08:30:56;71.15;;;29.35;;
2542;SDS011;1116;51.502;7.414;2023-03-03T08:33:47;64.05;;;28.80;;
2542;SDS011;1116;51.502;7.414;2023-03-03T08:36:18;71.25;;;28.02;;
2542;SDS011;1116;51.502;7.414;2023-03-03T08:38:51;66.22;;;28.48;;
2542;SDS011;1116;51.502;7.414;2023-03-03T08:41:22;71.50;;;28.70;;
2542;SDS011;1116;51.502;7.414;2023-03-03T08:43:53;65.13;;;27.35;;
2542;SDS011;1116;51.502;7.414;2023-03-03T08:46:24;68.35;;;28.83;;
2542;SDS011;1116;51.502;7.414;2023-03-03T08:48:55;61.05;;;27.10;;
2542;SDS011;1116;51.502;7.414;2023-03-03T08:51:26;66.40;;;29.05;;
2542;SDS011;1116;51.502;7.414;2023-03-03T08:53:59;77.28;;;30.45;;
2542;SDS011;1116;51.502;7.414;2023-03-03T08:56:30;78.07;;;32.88;;
2542;SDS011;1116;51.502;7.414;2023-03-03T08:59:01;78.70;;;30.90;;
2542;SDS011;1116;51.502;7.414;2023-03-03T09:01:32;77.18;;;31.55;;
2542;SDS011;1116;51.502;7.414;2023-03-03T09:04:03;70.20;;;29.50;;
2542;SDS011;1116;51.502;7.414;2023-03-03T09:06:34;65.78;;;27.75;;
2542;SDS011;1116;51.502;7.414;2023-03-03T09:09:08;60.92;;;26.25;;
2542;SDS011;1116;51.502;7.414;2023-03-03T09:11:39;57.55;;;24.30;;
2542;SDS011;1116;51.502;7.414;2023-03-03T09:14:11;52.35;;;22.67;;
2542;SDS011;1116;51.502;7.414;2023-03-03T09:16:44;65.15;;;27.67;;
2542;SDS011;1116;51.502;7.414;2023-03-03T09:19:20;56.28;;;24.90;;
2542;SDS011;1116;51.502;7.414;2023-03-03T09:21:54;59.53;;;25.80;;
2542;SDS011;1116;51.502;7.414;2023-03-03T09:24:30;57.38;;;26.92;;
2542;SDS011;1116;51.502;7.414;2023-03-03T09:27:06;59.25;;;25.83;;
2542;SDS011;1116;51.502;7.414;2023-03-03T09:29:47;53.40;;;23.67;;
2542;SDS011;1116;51.502;7.414;2023-03-03T09:32:25;49.67;;;23.88;;
2542;SDS011;1116;51.502;7.414;2023-03-03T09:40:53;56.35;;;24.38;;
2542;SDS011;1116;51.502;7.414;2023-03-03T09:43:44;64.47;;;27.80;;
2542;SDS011;1116;51.502;7.414;2023-03-03T09:46:29;61.75;;;26.40;;
2542;SDS011;1116;51.502;7.414;2023-03-03T09:49:08;65.50;;;28.20;;
2542;SDS011;1116;51.502;7.414;2023-03-03T09:51:59;62.42;;;26.58;;
2542;SDS011;1116;51.502;7.414;2023-03-03T09:54:46;59.90;;;25.08;;
2542;SDS011;1116;51.502;7.414;2023-03-03T09:57:36;53.08;;;23.38;;
2542;SDS011;1116;51.502;7.414;2023-03-03T10:00:40;58.40;;;24.70;;
2542;SDS011;1116;51.502;7.414;2023-03-03T10:03:32;57.37;;;24.27;;
2542;SDS011;1116;51.502;7.414;2023-03-03T10:06:25;59.83;;;24.20;;
2542;SDS011;1116;51.502;7.414;2023-03-03T10:09:07;53.20;;;22.07;;
2542;SDS011;1116;51.502;7.414;2023-03-03T10:12:02;57.42;;;24.88;;
2542;SDS011;1116;51.502;7.414;2023-03-03T10:14:51;52.10;;;21.50;;
2542;SDS011;1116;51.502;7.414;2023-03-03T10:17:36;49.03;;;22.00;;
2542;SDS011;1116;51.502;7.414;2023-03-03T10:20:34;39.53;;;18.90;;
2542;SDS011;1116;51.502;7.414;2023-03-03T10:23:19;51.70;;;19.95;;
2542;SDS011;1116;51.502;7.414;2023-03-03T10:25:56;46.38;;;20.33;;
2542;SDS011;1116;51.502;7.414;2023-03-03T10:31:36;45.75;;;18.90;;
2542;SDS011;1116;51.502;7.414;2023-03-03T10:34:21;43.90;;;19.03;;
2542;SDS011;1116;51.502;7.414;2023-03-03T10:37:26;47.13;;;19.37;;
2542;SDS011;1116;51.502;7.414;2023-03-03T10:40:04;46.37;;;19.40;;
2542;SDS011;1116;51.502;7.414;2023-03-03T10:42:50;53.33;;;22.50;;
2542;SDS011;1116;51.502;7.414;2023-03-03T10:45:56;42.15;;;18.83;;
2542;SDS011;1116;51.502;7.414;2023-03-03T10:48:54;46.60;;;21.67;;
2542;SDS011;1116;51.502;7.414;2023-03-03T10:51:41;52.50;;;20.67;;
2542;SDS011;1116;51.502;7.414;2023-03-03T10:54:24;46.83;;;19.40;;
2542;SDS011;1116;51.502;7.414;2023-03-03T10:57:02;46.65;;;20.70;;
2542;SDS011;1116;51.502;7.414;2023-03-03T10:59:42;42.67;;;20.70;;
2542;SDS011;1116;51.502;7.414;2023-03-03T11:02:41;40.77;;;19.10;;
2542;SDS011;1116;51.502;7.414;2023-03-03T11:05:31;37.83;;;18.03;;
2542;SDS011;1116;51.502;7.414;2023-03-03T11:08:08;35.40;;;17.67;;
2542;SDS011;1116;51.502;7.414;2023-03-03T11:10:47;34.10;;;16.77;;
2542;SDS011;1116;51.502;7.414;2023-03-03T11:13:24;36.63;;;18.00;;
2542;SDS011;1116;51.502;7.414;2023-03-03T11:16:13;32.20;;;16.30;;
2542;SDS011;1116;51.502;7.414;2023-03-03T11:19:00;37.20;;;17.43;;
2542;SDS011;1116;51.502;7.414;2023-03-03T11:21:50;34.93;;;16.40;;
2542;SDS011;1116;51.502;7.414;2023-03-03T11:24:35;39.37;;;16.73;;
2542;SDS011;1116;51.502;7.414;2023-03-03T11:27:28;43.57;;;18.97;;
2542;SDS011;1116;51.502;7.414;2023-03-03T11:30:24;35.70;;;16.50;;
2542;SDS011;1116;51.502;7.414;2023-03-03T11:33:02;37.37;;;17.17;;
2542;SDS011;1116;51.502;7.414;2023-03-03T11:35:43;39.97;;;19.17;;
2542;SDS011;1116;51.502;7.414;2023-03-03T11:38:22;45.13;;;22.70;;
2542;SDS011;1116;51.502;7.414;2023-03-03T11:41:11;53.33;;;25.43;;
2542;SDS011;1116;51.502;7.414;2023-03-03T11:43:48;59.57;;;28.57;;
2542;SDS011;1116;51.502;7.414;2023-03-03T11:46:23;48.97;;;24.10;;
2542;SDS011;1116;51.502;7.414;2023-03-03T11:48:59;53.70;;;23.30;;
2542;SDS011;1116;51.502;7.414;2023-03-03T11:51:40;43.10;;;20.63;;
2542;SDS011;1116;51.502;7.414;2023-03-03T11:54:19;37.50;;;18.10;;
2542;SDS011;1116;51.502;7.414;2023-03-03T11:56:57;34.97;;;17.53;;
2542;SDS011;1116;51.502;7.414;2023-03-03T11:59:47;38.20;;;16.93;;
2542;SDS011;1116;51.502;7.414;2023-03-03T12:02:33;37.43;;;18.90;;
2542;SDS011;1116;51.502;7.414;2023-03-03T12:05:31;49.83;;;21.47;;
2542;SDS011;1116;51.502;7.414;2023-03-03T12:08:13;45.30;;;21.63;;
2542;SDS011;1116;51.502;7.414;2023-03-03T12:10:54;42.30;;;20.63;;
2542;SDS011;1116;51.502;7.414;2023-03-03T12:13:32;45.20;;;23.20;;
2542;SDS011;1116;51.502;7.414;2023-03-03T12:16:15;38.50;;;18.73;;
2542;SDS011;1116;51.502;7.414;2023-03-03T12:19:02;38.23;;;18.53;;
2542;SDS011;1116;51.502;7.414;2023-03-03T12:25:12;45.90;;;21.23;;
2542;SDS011;1116;51.502;7.414;2023-03-03T12:28:02;39.07;;;19.47;;
2542;SDS011;1116;51.502;7.414;2023-03-03T12:30:42;35.73;;;17.53;;
2542;SDS011;1116;51.502;7.414;2023-03-03T12:33:32;35.43;;;17.70;;
2542;SDS011;1116;51.502;7.414;2023-03-03T12:36:15;42.70;;;19.40;;
2542;SDS011;1116;51.502;7.414;2023-03-03T12:39:04;34.40;;;17.30;;
2542;SDS011;1116;51.502;7.414;2023-03-03T12:42:04;30.33;;;15.40;;
2542;SDS011;1116;51.502;7.414;2023-03-03T12:44:42;35.43;;;17.70;;
2542;SDS011;1116;51.502;7.414;2023-03-03T12:47:20;44.80;;;18.90;;
2542;SDS011;1116;51.502;7.414;2023-03-03T12:49:57;42.53;;;21.17;;
2542;SDS011;1116;51.502;7.414;2023-03-03T12:52:37;40.10;;;21.87;;
2542;SDS011;1116;51.502;7.414;2023-03-03T12:55:17;38.80;;;19.90;;
2542;SDS011;1116;51.502;7.414;2023-03-03T12:57:59;41.13;;;21.90;;
2542;SDS011;1116;51.502;7.414;2023-03-03T13:00:40;42.67;;;23.50;;
2542;SDS011;1116;51.502;7.414;2023-03-03T13:03:24;47.30;;;22.97;;
2542;SDS011;1116;51.502;7.414;2023-03-03T13:06:22;42.20;;;21.97;;
2542;SDS011;1116;51.502;7.414;2023-03-03T13:09:00;40.30;;;21.80;;
2542;SDS011;1116;51.502;7.414;2023-03-03T13:14:42;49.17;;;25.53;;
2542;SDS011;1116;51.502;7.414;2023-03-03T13:17:21;48.77;;;27.53;;
2542;SDS011;1116;51.502;7.414;2023-03-03T13:19:57;49.70;;;28.03;;
2542;SDS011;1116;51.502;7.414;2023-03-03T13:22:31;50.87;;;28.17;;
2542;SDS011;1116;51.502;7.414;2023-03-03T13:25:13;45.43;;;28.00;;
2542;SDS011;1116;51.502;7.414;2023-03-03T13:27:58;47.47;;;26.90;;
2542;SDS011;1116;51.502;7.414;2023-03-03T13:30:34;43.40;;;26.60;;
2542;SDS011;1116;51.502;7.414;2023-03-03T13:33:13;47.10;;;26.97;;
2542;SDS011;1116;51.502;7.414;2023-03-03T13:35:50;50.33;;;28.70;;
2542;SDS011;1116;51.502;7.414;2023-03-03T13:38:24;51.70;;;30.53;;
2542;SDS011;1116;51.502;7.414;2023-03-03T13:41:01;55.03;;;31.07;;
2542;SDS011;1116;51.502;7.414;2023-03-03T13:43:38;52.07;;;30.77;;
2542;SDS011;1116;51.502;7.414;2023-03-03T13:46:20;56.43;;;32.50;;
2542;SDS011;1116;51.502;7.414;2023-03-03T13:49:13;65.90;;;34.67;;
2542;SDS011;1116;51.502;7.414;2023-03-03T13:52:02;62.00;;;35.07;;
2542;SDS011;1116;51.502;7.414;2023-03-03T13:54:45;62.03;;;35.77;;
2542;SDS011;1116;51.502;7.414;2023-03-03T13:57:28;57.23;;;34.10;;
2542;SDS011;1116;51.502;7.414;2023-03-03T14:00:18;60.43;;;33.13;;
2542;SDS011;1116;51.502;7.414;2023-03-03T14:03:10;59.57;;;34.50;;
2542;SDS011;1116;51.502;7.414;2023-03-03T14:05:51;53.03;;;32.00;;
2542;SDS011;1116;51.502;7.414;2023-03-03T14:08:32;55.70;;;33.13;;
2542;SDS011;1116;51.502;7.414;2023-03-03T14:11:18;49.77;;;30.27;;
2542;SDS011;1116;51.502;7.414;2023-03-03T14:13:56;51.17;;;30.53;;
2542;SDS011;1116;51.502;7.414;2023-03-03T14:16:36;60.83;;;33.00;;
2542;SDS011;1116;51.502;7.414;2023-03-03T14:19:18;64.90;;;36.20;;
2542;SDS011;1116;51.502;7.414;2023-03-03T14:21:59;58.73;;;34.90;;
2542;SDS011;1116;51.502;7.414;2023-03-03T14:27:26;62.43;;;34.83;;
2542;SDS011;1116;51.502;7.414;2023-03-03T14:33:15;57.03;;;33.83;;
2542;SDS011;1116;51.502;7.414;2023-03-03T14:35:59;55.40;;;33.00;;
2542;SDS011;1116;51.502;7.414;2023-03-03T14:38:36;55.47;;;34.13;;
2542;SDS011;1116;51.502;7.414;2023-03-03T14:41:13;53.73;;;32.20;;
2542;SDS011;1116;51.502;7.414;2023-03-03T14:43:55;59.60;;;32.10;;
2542;SDS011;1116;51.502;7.414;2023-03-03T14:46:33;52.00;;;32.97;;
2542;SDS011;1116;51.502;7.414;2023-03-03T14:49:13;52.40;;;30.83;;
2542;SDS011;1116;51.502;7.414;2023-03-03T14:51:48;50.90;;;31.23;;
2542;SDS011;1116;51.502;7.414;2023-03-03T14:54:20;49.40;;;29.97;;
2542;SDS011;1116;51.502;7.414;2023-03-03T14:56:55;46.37;;;28.77;;
2542;SDS011;1116;51.502;7.414;2023-03-03T14:59:29;48.70;;;29.33;;
2542;SDS011;1116;51.502;7.414;2023-03-03T15:05:19;46.70;;;28.77;;
2542;SDS011;1116;51.502;7.414;2023-03-03T15:07:55;47.77;;;29.00;;
2542;SDS011;1116;51.502;7.414;2023-03-03T15:10:32;43.83;;;27.57;;
2542;SDS011;1116;51.502;7.414;2023-03-03T15:16:02;42.57;;;27.50;;
2542;SDS011;1116;51.502;7.414;2023-03-03T15:21:40;45.93;;;27.67;;
2542;SDS011;1116;51.502;7.414;2023-03-03T15:24:25;41.77;;;25.33;;
2542;SDS011;1116;51.502;7.414;2023-03-03T15:27:05;41.40;;;25.43;;
2542;SDS011;1116;51.502;7.414;2023-03-03T15:29:41;40.60;;;24.20;;
2542;SDS011;1116;51.502;7.414;2023-03-03T15:32:24;38.30;;;23.03;;
2542;SDS011;1116;51.502;7.414;2023-03-03T15:35:00;38.00;;;22.77;;
2542;SDS011;1116;51.502;7.414;2023-03-03T15:37:40;35.13;;;23.10;;
2542;SDS011;1116;51.502;7.414;2023-03-03T15:40:23;37.97;;;22.20;;
2542;SDS011;1116;51.502;7.414;2023-03-03T15:42:59;40.87;;;24.30;;
2542;SDS011;1116;51.502;7.414;2023-03-03T15:45:38;40.80;;;24.30;;
2542;SDS011;1116;51.502;7.414;2023-03-03T15:48:21;39.70;;;22.50;;
2542;SDS011;1116;51.502;7.414;2023-03-03T15:51:05;34.03;;;20.70;;
2542;SDS011;1116;51.502;7.414;2023-03-03T15:54:01;33.73;;;19.37;;
2542;SDS011;1116;51.502;7.414;2023-03-03T15:56:50;36.90;;;23.30;;
2542;SDS011;1116;51.502;7.414;2023-03-03T16:02:27;33.13;;;20.00;;
2542;SDS011;1116;51.502;7.414;2023-03-03T16:05:14;26.00;;;14.73;;
2542;SDS011;1116;51.502;7.414;2023-03-03T16:07:52;24.43;;;15.83;;
2542;SDS011;1116;51.502;7.414;2023-03-03T16:10:33;30.37;;;17.47;;
2542;SDS011;1116;51.502;7.414;2023-03-03T16:13:23;30.40;;;17.03;;
2542;SDS011;1116;51.502;7.414;2023-03-03T16:16:12;26.83;;;15.20;;
2542;SDS011;1116;51.502;7.414;2023-03-03T16:19:02;23.90;;;14.20;;
2542;SDS011;1116;51.502;7.414;2023-03-03T16:21:49;26.67;;;16.10;;
2542;SDS011;1116;51.502;7.414;2023-03-03T16:24:32;27.50;;;16.43;;
2542;SDS011;1116;51.502;7.414;2023-03-03T16:27:17;31.67;;;19.67;;
2542;SDS011;1116;51.502;7.414;2023-03-03T16:30:05;27.83;;;17.30;;
2542;SDS011;1116;51.502;7.414;2023-03-03T16:33:07;29.10;;;15.50;;
2542;SDS011;1116;51.502;7.414;2023-03-03T16:35:47;22.90;;;13.90;;
2542;SDS011;1116;51.502;7.414;2023-03-03T16:38:26;23.80;;;12.90;;